sensor_id;sensor_type;location;lat;lon;timestamp;P1;durP1;ratioP1;P2;durP2;ratioP2
71127;SDS011;59249;59.736;30.568;2023-02-01T00:01:47;1.33;;;0.10;;
71127;SDS011;59249;59.736;30.568;2023-02-01T00:04:17;4.55;;;0.35;;
71127;SDS011;59249;59.736;30.568;2023-02-01T00:06:46;2.45;;;0.30;;
71127;SDS011;59249;59.736;30.568;2023-02-01T00:09:16;6.03;;;0.40;;
71127;SDS011;59249;59.736;30.568;2023-02-01T00:11:44;2.95;;;0.30;;
71127;SDS011;59249;59.736;30.568;2023-02-01T00:14:13;5.38;;;0.55;;
71127;SDS011;59249;59.736;30.568;2023-02-01T00:16:42;3.70;;;0.40;;
71127;SDS011;59249;59.736;30.568;2023-02-01T00:19:12;3.00;;;0.30;;
71127;SDS011;59249;59.736;30.568;2023-02-01T00:21:43;5.53;;;0.50;;
71127;SDS011;59249;59.736;30.568;2023-02-01T00:24:12;5.05;;;0.47;;
71127;SDS011;59249;59.736;30.568;2023-02-01T00:26:41;3.40;;;0.30;;
71127;SDS011;59249;59.736;30.568;2023-02-01T00:29:14;3.08;;;0.25;;
71127;SDS011;59249;59.736;30.568;2023-02-01T00:31:45;2.95;;;0.35;;
71127;SDS011;59249;59.736;30.568;2023-02-01T00:34:17;4.17;;;0.53;;
71127;SDS011;59249;59.736;30.568;2023-02-01T00:36:48;1.42;;;0.30;;
71127;SDS011;59249;59.736;30.568;2023-02-01T00:39:17;2.53;;;0.30;;
71127;SDS011;59249;59.736;30.568;2023-02-01T00:41:46;2.78;;;0.30;;
71127;SDS011;59249;59.736;30.568;2023-02-01T00:44:14;5.90;;;0.68;;
71127;SDS011;59249;59.736;30.568;2023-02-01T00:46:43;3.37;;;0.40;;
71127;SDS011;59249;59.736;30.568;2023-02-01T00:49:12;3.72;;;0.43;;
71127;SDS011;59249;59.736;30.568;2023-02-01T00:51:40;6.93;;;0.45;;
71127;SDS011;59249;59.736;30.568;2023-02-01T00:54:10;2.25;;;0.28;;
71127;SDS011;59249;59.736;30.568;2023-02-01T00:56:39;5.90;;;0.75;;
71127;SDS011;59249;59.736;30.568;2023-02-01T00:59:10;5.10;;;0.60;;
71127;SDS011;59249;59.736;30.568;2023-02-01T01:01:39;6.65;;;0.57;;
71127;SDS011;59249;59.736;30.568;2023-02-01T01:04:08;2.55;;;0.25;;
71127;SDS011;59249;59.736;30.568;2023-02-01T01:06:37;4.38;;;0.28;;
71127;SDS011;59249;59.736;30.568;2023-02-01T01:09:06;3.72;;;0.50;;
71127;SDS011;59249;59.736;30.568;2023-02-01T01:11:37;2.70;;;0.20;;
71127;SDS011;59249;59.736;30.568;2023-02-01T01:14:06;3.47;;;0.47;;
71127;SDS011;59249;59.736;30.568;2023-02-01T01:16:38;2.58;;;0.20;;
71127;SDS011;59249;59.736;30.568;2023-02-01T01:19:06;6.50;;;0.50;;
71127;SDS011;59249;59.736;30.568;2023-02-01T01:21:35;4.07;;;0.30;;
71127;SDS011;59249;59.736;30.568;2023-02-01T01:24:04;3.50;;;0.30;;
71127;SDS011;59249;59.736;30.568;2023-02-01T01:26:33;5.13;;;0.40;;
71127;SDS011;59249;59.736;30.568;2023-02-01T01:29:03;3.80;;;0.22;;
71127;SDS011;59249;59.736;30.568;2023-02-01T01:31:32;4.45;;;0.40;;
71127;SDS011;59249;59.736;30.568;2023-02-01T01:34:01;5.97;;;0.30;;
71127;SDS011;59249;59.736;30.568;2023-02-01T01:36:30;3.17;;;0.43;;
71127;SDS011;59249;59.736;30.568;2023-02-01T01:38:58;3.30;;;0.30;;
71127;SDS011;59249;59.736;30.568;2023-02-01T01:41:28;1.30;;;0.20;;
71127;SDS011;59249;59.736;30.568;2023-02-01T01:47:30;6.35;;;0.43;;
71127;SDS011;59249;59.736;30.568;2023-02-01T01:50:05;2.73;;;0.50;;
71127;SDS011;59249;59.736;30.568;2023-02-01T01:52:40;2.42;;;0.45;;
71127;SDS011;59249;59.736;30.568;2023-02-01T01:55:11;3.72;;;0.85;;
71127;SDS011;59249;59.736;30.568;2023-02-01T01:57:43;4.00;;;0.30;;
71127;SDS011;59249;59.736;30.568;2023-02-01T02:00:19;3.72;;;0.65;;
71127;SDS011;59249;59.736;30.568;2023-02-01T02:02:53;5.17;;;0.40;;
71127;SDS011;59249;59.736;30.568;2023-02-01T02:05:26;7.40;;;0.60;;
71127;SDS011;59249;59.736;30.568;2023-02-01T02:07:57;3.15;;;0.30;;
71127;SDS011;59249;59.736;30.568;2023-02-01T02:10:28;1.90;;;0.20;;
71127;SDS011;59249;59.736;30.568;2023-02-01T02:13:12;2.22;;;0.30;;
71127;SDS011;59249;59.736;30.568;2023-02-01T02:15:45;1.77;;;0.37;;
71127;SDS011;59249;59.736;30.568;2023-02-01T02:18:34;1.90;;;0.10;;
71127;SDS011;59249;59.736;30.568;2023-02-01T02:21:18;5.57;;;0.20;;
71127;SDS011;59249;59.736;30.568;2023-02-01T02:24:15;1.92;;;0.20;;
71127;SDS011;59249;59.736;30.568;2023-02-01T02:27:11;3.35;;;0.30;;
71127;SDS011;59249;59.736;30.568;2023-02-01T02:36:22;4.20;;;0.30;;
71127;SDS011;59249;59.736;30.568;2023-02-01T02:39:04;4.93;;;0.20;;
71127;SDS011;59249;59.736;30.568;2023-02-01T02:41:41;2.78;;;0.30;;
71127;SDS011;59249;59.736;30.568;2023-02-01T02:44:44;2.67;;;0.40;;
71127;SDS011;59249;59.736;30.568;2023-02-01T02:47:36;1.08;;;0.17;;
71127;SDS011;59249;59.736;30.568;2023-02-01T02:50:20;3.83;;;0.45;;
71127;SDS011;59249;59.736;30.568;2023-02-01T02:53:15;4.50;;;1.52;;
71127;SDS011;59249;59.736;30.568;2023-02-01T02:56:06;6.00;;;1.58;;
71127;SDS011;59249;59.736;30.568;2023-02-01T02:58:56;2.00;;;0.27;;
71127;SDS011;59249;59.736;30.568;2023-02-01T03:01:44;4.97;;;0.50;;
71127;SDS011;59249;59.736;30.568;2023-02-01T03:04:31;5.47;;;0.73;;
71127;SDS011;59249;59.736;30.568;2023-02-01T03:07:10;5.53;;;1.10;;
71127;SDS011;59249;59.736;30.568;2023-02-01T03:09:43;2.38;;;0.10;;
71127;SDS011;59249;59.736;30.568;2023-02-01T03:12:15;4.93;;;0.40;;
71127;SDS011;59249;59.736;30.568;2023-02-01T03:15:06;3.65;;;0.20;;
71127;SDS011;59249;59.736;30.568;2023-02-01T03:17:42;4.03;;;0.60;;
71127;SDS011;59249;59.736;30.568;2023-02-01T03:20:14;5.70;;;0.93;;
71127;SDS011;59249;59.736;30.568;2023-02-01T03:22:49;4.03;;;0.30;;
71127;SDS011;59249;59.736;30.568;2023-02-01T03:25:22;4.37;;;0.57;;
71127;SDS011;59249;59.736;30.568;2023-02-01T03:27:59;2.28;;;0.25;;
71127;SDS011;59249;59.736;30.568;2023-02-01T03:30:33;1.88;;;0.20;;
71127;SDS011;59249;59.736;30.568;2023-02-01T03:33:07;2.33;;;0.43;;
71127;SDS011;59249;59.736;30.568;2023-02-01T03:35:50;3.00;;;0.32;;
71127;SDS011;59249;59.736;30.568;2023-02-01T03:38:31;1.07;;;0.10;;
71127;SDS011;59249;59.736;30.568;2023-02-01T03:41:11;2.67;;;0.13;;
71127;SDS011;59249;59.736;30.568;2023-02-01T03:43:49;0.95;;;0.30;;
71127;SDS011;59249;59.736;30.568;2023-02-01T03:46:28;4.45;;;0.38;;
71127;SDS011;59249;59.736;30.568;2023-02-01T03:49:02;2.20;;;0.40;;
71127;SDS011;59249;59.736;30.568;2023-02-01T03:51:38;2.30;;;0.40;;
71127;SDS011;59249;59.736;30.568;2023-02-01T03:54:10;3.72;;;0.43;;
71127;SDS011;59249;59.736;30.568;2023-02-01T03:56:42;1.67;;;0.17;;
71127;SDS011;59249;59.736;30.568;2023-02-01T03:59:15;2.78;;;0.40;;
71127;SDS011;59249;59.736;30.568;2023-02-01T04:01:44;4.05;;;0.20;;
71127;SDS011;59249;59.736;30.568;2023-02-01T04:04:13;5.37;;;0.50;;
71127;SDS011;59249;59.736;30.568;2023-02-01T04:06:50;4.60;;;0.88;;
71127;SDS011;59249;59.736;30.568;2023-02-01T04:09:21;2.88;;;0.20;;
71127;SDS011;59249;59.736;30.568;2023-02-01T04:11:49;3.05;;;0.20;;
71127;SDS011;59249;59.736;30.568;2023-02-01T04:14:18;2.85;;;0.38;;
71127;SDS011;59249;59.736;30.568;2023-02-01T04:16:47;1.00;;;0.37;;
71127;SDS011;59249;59.736;30.568;2023-02-01T04:19:15;2.28;;;0.52;;
71127;SDS011;59249;59.736;30.568;2023-02-01T04:21:44;4.88;;;0.32;;
71127;SDS011;59249;59.736;30.568;2023-02-01T04:24:13;2.50;;;0.30;;
71127;SDS011;59249;59.736;30.568;2023-02-01T04:26:43;3.83;;;0.40;;
71127;SDS011;59249;59.736;30.568;2023-02-01T04:29:12;6.13;;;0.40;;
71127;SDS011;59249;59.736;30.568;2023-02-01T04:31:41;2.08;;;0.28;;
71127;SDS011;59249;59.736;30.568;2023-02-01T04:34:09;2.13;;;0.30;;
71127;SDS011;59249;59.736;30.568;2023-02-01T04:36:38;4.25;;;0.50;;
71127;SDS011;59249;59.736;30.568;2023-02-01T04:39:08;2.90;;;0.38;;
71127;SDS011;59249;59.736;30.568;2023-02-01T04:41:37;2.50;;;0.20;;
71127;SDS011;59249;59.736;30.568;2023-02-01T04:44:08;3.17;;;0.35;;
71127;SDS011;59249;59.736;30.568;2023-02-01T04:46:43;5.18;;;0.88;;
71127;SDS011;59249;59.736;30.568;2023-02-01T04:49:13;4.95;;;0.38;;
71127;SDS011;59249;59.736;30.568;2023-02-01T04:51:43;9.40;;;0.65;;
71127;SDS011;59249;59.736;30.568;2023-02-01T04:54:11;6.53;;;0.50;;
71127;SDS011;59249;59.736;30.568;2023-02-01T04:56:40;2.78;;;0.52;;
71127;SDS011;59249;59.736;30.568;2023-02-01T04:59:11;5.32;;;0.43;;
71127;SDS011;59249;59.736;30.568;2023-02-01T05:01:40;5.30;;;0.57;;
71127;SDS011;59249;59.736;30.568;2023-02-01T05:04:09;4.22;;;0.40;;
71127;SDS011;59249;59.736;30.568;2023-02-01T05:06:37;2.47;;;0.30;;
71127;SDS011;59249;59.736;30.568;2023-02-01T05:09:06;4.15;;;0.35;;
71127;SDS011;59249;59.736;30.568;2023-02-01T05:11:35;5.30;;;0.57;;
71127;SDS011;59249;59.736;30.568;2023-02-01T05:14:22;2.10;;;0.30;;
71127;SDS011;59249;59.736;30.568;2023-02-01T05:16:51;13.02;;;3.70;;
71127;SDS011;59249;59.736;30.568;2023-02-01T05:19:20;2.63;;;0.20;;
71127;SDS011;59249;59.736;30.568;2023-02-01T05:21:49;4.05;;;0.35;;
71127;SDS011;59249;59.736;30.568;2023-02-01T05:24:18;2.90;;;0.30;;
71127;SDS011;59249;59.736;30.568;2023-02-01T05:26:47;4.75;;;0.40;;
71127;SDS011;59249;59.736;30.568;2023-02-01T05:29:17;2.65;;;0.30;;
71127;SDS011;59249;59.736;30.568;2023-02-01T05:31:48;7.37;;;0.60;;
71127;SDS011;59249;59.736;30.568;2023-02-01T05:34:17;2.03;;;0.22;;
71127;SDS011;59249;59.736;30.568;2023-02-01T05:36:47;4.47;;;0.50;;
71127;SDS011;59249;59.736;30.568;2023-02-01T05:39:15;4.80;;;0.30;;
71127;SDS011;59249;59.736;30.568;2023-02-01T05:41:44;4.53;;;0.50;;
71127;SDS011;59249;59.736;30.568;2023-02-01T05:44:13;4.70;;;0.63;;
71127;SDS011;59249;59.736;30.568;2023-02-01T05:46:45;6.25;;;0.50;;
71127;SDS011;59249;59.736;30.568;2023-02-01T05:49:20;3.20;;;0.63;;
71127;SDS011;59249;59.736;30.568;2023-02-01T05:51:49;4.38;;;0.32;;
71127;SDS011;59249;59.736;30.568;2023-02-01T05:54:18;4.45;;;0.50;;
71127;SDS011;59249;59.736;30.568;2023-02-01T05:56:46;6.30;;;0.33;;
71127;SDS011;59249;59.736;30.568;2023-02-01T05:59:15;5.63;;;0.47;;
71127;SDS011;59249;59.736;30.568;2023-02-01T06:01:44;6.18;;;0.47;;
71127;SDS011;59249;59.736;30.568;2023-02-01T06:04:15;4.68;;;0.22;;
71127;SDS011;59249;59.736;30.568;2023-02-01T06:06:49;1.60;;;0.30;;
71127;SDS011;59249;59.736;30.568;2023-02-01T06:09:22;3.57;;;0.20;;
71127;SDS011;59249;59.736;30.568;2023-02-01T06:11:54;2.55;;;0.40;;
71127;SDS011;59249;59.736;30.568;2023-02-01T06:14:25;2.67;;;0.25;;
71127;SDS011;59249;59.736;30.568;2023-02-01T06:16:57;3.13;;;0.35;;
71127;SDS011;59249;59.736;30.568;2023-02-01T06:19:26;2.75;;;0.30;;
71127;SDS011;59249;59.736;30.568;2023-02-01T06:21:56;3.57;;;0.73;;
71127;SDS011;59249;59.736;30.568;2023-02-01T06:24:25;2.33;;;0.20;;
71127;SDS011;59249;59.736;30.568;2023-02-01T06:26:55;4.43;;;0.38;;
71127;SDS011;59249;59.736;30.568;2023-02-01T06:29:31;4.95;;;0.40;;
71127;SDS011;59249;59.736;30.568;2023-02-01T06:32:00;3.33;;;0.40;;
71127;SDS011;59249;59.736;30.568;2023-02-01T06:34:30;4.20;;;0.40;;
71127;SDS011;59249;59.736;30.568;2023-02-01T06:37:00;4.10;;;0.40;;
71127;SDS011;59249;59.736;30.568;2023-02-01T06:39:29;4.72;;;0.30;;
71127;SDS011;59249;59.736;30.568;2023-02-01T06:42:00;1.85;;;0.10;;
71127;SDS011;59249;59.736;30.568;2023-02-01T06:44:29;2.40;;;0.35;;
71127;SDS011;59249;59.736;30.568;2023-02-01T06:47:02;3.47;;;0.37;;
71127;SDS011;59249;59.736;30.568;2023-02-01T06:49:34;3.22;;;0.30;;
71127;SDS011;59249;59.736;30.568;2023-02-01T06:52:05;1.63;;;0.28;;
71127;SDS011;59249;59.736;30.568;2023-02-01T06:54:33;3.08;;;0.68;;
71127;SDS011;59249;59.736;30.568;2023-02-01T06:57:05;3.15;;;0.30;;
71127;SDS011;59249;59.736;30.568;2023-02-01T06:59:34;4.67;;;0.50;;
71127;SDS011;59249;59.736;30.568;2023-02-01T07:02:05;4.72;;;0.40;;
71127;SDS011;59249;59.736;30.568;2023-02-01T07:04:35;5.57;;;0.40;;
71127;SDS011;59249;59.736;30.568;2023-02-01T07:07:09;4.05;;;0.70;;
71127;SDS011;59249;59.736;30.568;2023-02-01T07:09:38;3.90;;;0.30;;
71127;SDS011;59249;59.736;30.568;2023-02-01T07:12:07;4.03;;;0.60;;
71127;SDS011;59249;59.736;30.568;2023-02-01T07:14:35;3.45;;;0.40;;
71127;SDS011;59249;59.736;30.568;2023-02-01T07:17:04;2.70;;;0.30;;
71127;SDS011;59249;59.736;30.568;2023-02-01T07:19:33;2.90;;;0.73;;
71127;SDS011;59249;59.736;30.568;2023-02-01T07:22:02;3.65;;;0.45;;
71127;SDS011;59249;59.736;30.568;2023-02-01T07:24:34;5.97;;;0.30;;
71127;SDS011;59249;59.736;30.568;2023-02-01T07:27:03;3.55;;;0.30;;
71127;SDS011;59249;59.736;30.568;2023-02-01T07:29:32;2.40;;;0.32;;
71127;SDS011;59249;59.736;30.568;2023-02-01T07:32:01;3.35;;;0.40;;
71127;SDS011;59249;59.736;30.568;2023-02-01T07:34:29;7.10;;;0.55;;
71127;SDS011;59249;59.736;30.568;2023-02-01T07:37:03;4.17;;;0.40;;
71127;SDS011;59249;59.736;30.568;2023-02-01T07:39:34;2.90;;;0.38;;
71127;SDS011;59249;59.736;30.568;2023-02-01T07:42:03;2.95;;;0.47;;
71127;SDS011;59249;59.736;30.568;2023-02-01T07:44:33;2.65;;;0.30;;
71127;SDS011;59249;59.736;30.568;2023-02-01T07:47:03;4.50;;;0.50;;
71127;SDS011;59249;59.736;30.568;2023-02-01T07:49:31;4.07;;;0.40;;
71127;SDS011;59249;59.736;30.568;2023-02-01T07:52:00;3.70;;;0.50;;
71127;SDS011;59249;59.736;30.568;2023-02-01T07:54:31;4.10;;;0.68;;
71127;SDS011;59249;59.736;30.568;2023-02-01T07:57:02;5.47;;;0.55;;
71127;SDS011;59249;59.736;30.568;2023-02-01T07:59:33;6.78;;;1.13;;
71127;SDS011;59249;59.736;30.568;2023-02-01T08:02:38;4.00;;;0.50;;
71127;SDS011;59249;59.736;30.568;2023-02-01T08:05:06;6.10;;;1.23;;
71127;SDS011;59249;59.736;30.568;2023-02-01T08:07:36;8.63;;;2.53;;
71127;SDS011;59249;59.736;30.568;2023-02-01T08:10:05;11.88;;;2.55;;
71127;SDS011;59249;59.736;30.568;2023-02-01T08:12:40;10.30;;;3.22;;
71127;SDS011;59249;59.736;30.568;2023-02-01T08:15:08;11.17;;;3.60;;
71127;SDS011;59249;59.736;30.568;2023-02-01T08:17:38;10.15;;;4.32;;
71127;SDS011;59249;59.736;30.568;2023-02-01T08:20:08;11.75;;;4.28;;
71127;SDS011;59249;59.736;30.568;2023-02-01T08:22:40;11.55;;;4.47;;
71127;SDS011;59249;59.736;30.568;2023-02-01T08:25:12;10.77;;;3.67;;
71127;SDS011;59249;59.736;30.568;2023-02-01T08:27:47;8.23;;;2.50;;
71127;SDS011;59249;59.736;30.568;2023-02-01T08:30:17;5.10;;;1.42;;
71127;SDS011;59249;59.736;30.568;2023-02-01T08:32:46;3.75;;;1.10;;
71127;SDS011;59249;59.736;30.568;2023-02-01T08:35:15;5.28;;;1.10;;
71127;SDS011;59249;59.736;30.568;2023-02-01T08:37:58;2.90;;;0.90;;
71127;SDS011;59249;59.736;30.568;2023-02-01T08:40:28;3.13;;;0.67;;
71127;SDS011;59249;59.736;30.568;2023-02-01T08:43:02;3.08;;;0.50;;
71127;SDS011;59249;59.736;30.568;2023-02-01T08:45:31;2.10;;;0.30;;
71127;SDS011;59249;59.736;30.568;2023-02-01T08:48:00;2.88;;;0.22;;
71127;SDS011;59249;59.736;30.568;2023-02-01T08:50:28;3.78;;;0.60;;
71127;SDS011;59249;59.736;30.568;2023-02-01T08:52:57;3.23;;;0.33;;
71127;SDS011;59249;59.736;30.568;2023-02-01T08:55:26;1.58;;;0.40;;
71127;SDS011;59249;59.736;30.568;2023-02-01T08:57:55;3.35;;;0.50;;
71127;SDS011;59249;59.736;30.568;2023-02-01T09:00:28;2.95;;;0.57;;
71127;SDS011;59249;59.736;30.568;2023-02-01T09:02:59;6.32;;;0.60;;
71127;SDS011;59249;59.736;30.568;2023-02-01T09:05:28;1.93;;;0.40;;
71127;SDS011;59249;59.736;30.568;2023-02-01T09:08:14;2.53;;;0.40;;
71127;SDS011;59249;59.736;30.568;2023-02-01T09:10:42;3.28;;;0.57;;
71127;SDS011;59249;59.736;30.568;2023-02-01T09:13:12;6.25;;;0.80;;
71127;SDS011;59249;59.736;30.568;2023-02-01T09:15:44;5.72;;;0.50;;
71127;SDS011;59249;59.736;30.568;2023-02-01T09:18:15;4.13;;;0.90;;
71127;SDS011;59249;59.736;30.568;2023-02-01T09:20:43;2.90;;;0.32;;
71127;SDS011;59249;59.736;30.568;2023-02-01T09:23:12;6.00;;;1.00;;
71127;SDS011;59249;59.736;30.568;2023-02-01T09:25:41;4.57;;;0.55;;
71127;SDS011;59249;59.736;30.568;2023-02-01T09:28:10;3.25;;;0.60;;
71127;SDS011;59249;59.736;30.568;2023-02-01T09:30:39;3.63;;;0.30;;
71127;SDS011;59249;59.736;30.568;2023-02-01T09:33:14;3.85;;;0.35;;
71127;SDS011;59249;59.736;30.568;2023-02-01T09:35:46;3.25;;;0.43;;
71127;SDS011;59249;59.736;30.568;2023-02-01T09:38:15;2.17;;;0.40;;
71127;SDS011;59249;59.736;30.568;2023-02-01T09:40:44;2.92;;;0.40;;
71127;SDS011;59249;59.736;30.568;2023-02-01T09:43:18;15.90;;;4.97;;
71127;SDS011;59249;59.736;30.568;2023-02-01T09:46:03;3.85;;;0.80;;
71127;SDS011;59249;59.736;30.568;2023-02-01T09:48:57;2.38;;;0.35;;
71127;SDS011;59249;59.736;30.568;2023-02-01T09:51:36;2.70;;;0.55;;
71127;SDS011;59249;59.736;30.568;2023-02-01T09:54:12;4.28;;;0.93;;
71127;SDS011;59249;59.736;30.568;2023-02-01T09:56:47;4.67;;;0.70;;
71127;SDS011;59249;59.736;30.568;2023-02-01T09:59:23;3.92;;;0.90;;
71127;SDS011;59249;59.736;30.568;2023-02-01T10:02:10;3.65;;;0.88;;
71127;SDS011;59249;59.736;30.568;2023-02-01T10:04:46;5.18;;;1.08;;
71127;SDS011;59249;59.736;30.568;2023-02-01T10:07:20;4.22;;;0.70;;
71127;SDS011;59249;59.736;30.568;2023-02-01T10:10:01;5.53;;;0.80;;
71127;SDS011;59249;59.736;30.568;2023-02-01T10:15:51;2.95;;;0.60;;
71127;SDS011;59249;59.736;30.568;2023-02-01T10:22:03;2.17;;;0.40;;
71127;SDS011;59249;59.736;30.568;2023-02-01T10:24:42;2.70;;;0.60;;
71127;SDS011;59249;59.736;30.568;2023-02-01T10:27:28;2.45;;;0.40;;
71127;SDS011;59249;59.736;30.568;2023-02-01T10:30:12;2.95;;;0.50;;
71127;SDS011;59249;59.736;30.568;2023-02-01T10:33:01;4.38;;;0.90;;
71127;SDS011;59249;59.736;30.568;2023-02-01T10:35:47;3.45;;;0.40;;
71127;SDS011;59249;59.736;30.568;2023-02-01T10:38:40;3.17;;;0.40;;
71127;SDS011;59249;59.736;30.568;2023-02-01T10:41:22;3.08;;;0.40;;
71127;SDS011;59249;59.736;30.568;2023-02-01T10:44:07;2.00;;;0.45;;
71127;SDS011;59249;59.736;30.568;2023-02-01T10:46:42;5.35;;;0.57;;
71127;SDS011;59249;59.736;30.568;2023-02-01T10:49:12;5.18;;;0.55;;
71127;SDS011;59249;59.736;30.568;2023-02-01T10:51:54;3.23;;;0.77;;
71127;SDS011;59249;59.736;30.568;2023-02-01T10:54:38;4.38;;;0.70;;
71127;SDS011;59249;59.736;30.568;2023-02-01T10:57:07;5.25;;;1.00;;
71127;SDS011;59249;59.736;30.568;2023-02-01T10:59:38;2.60;;;0.63;;
71127;SDS011;59249;59.736;30.568;2023-02-01T11:02:15;3.65;;;0.65;;
71127;SDS011;59249;59.736;30.568;2023-02-01T11:05:01;4.50;;;0.80;;
71127;SDS011;59249;59.736;30.568;2023-02-01T11:07:35;5.07;;;0.90;;
71127;SDS011;59249;59.736;30.568;2023-02-01T11:10:33;5.00;;;0.70;;
71127;SDS011;59249;59.736;30.568;2023-02-01T11:13:13;4.38;;;0.73;;
71127;SDS011;59249;59.736;30.568;2023-02-01T11:15:55;5.45;;;1.05;;
71127;SDS011;59249;59.736;30.568;2023-02-01T11:18:33;3.83;;;0.70;;
71127;SDS011;59249;59.736;30.568;2023-02-01T11:21:08;7.00;;;1.08;;
71127;SDS011;59249;59.736;30.568;2023-02-01T11:23:40;4.72;;;0.68;;
71127;SDS011;59249;59.736;30.568;2023-02-01T11:26:20;5.57;;;0.90;;
71127;SDS011;59249;59.736;30.568;2023-02-01T11:28:57;3.60;;;0.70;;
71127;SDS011;59249;59.736;30.568;2023-02-01T11:31:45;3.50;;;0.70;;
71127;SDS011;59249;59.736;30.568;2023-02-01T11:34:15;2.67;;;0.50;;
71127;SDS011;59249;59.736;30.568;2023-02-01T11:36:48;4.10;;;0.35;;
71127;SDS011;59249;59.736;30.568;2023-02-01T11:39:23;4.75;;;0.30;;
71127;SDS011;59249;59.736;30.568;2023-02-01T11:41:58;2.45;;;0.70;;
71127;SDS011;59249;59.736;30.568;2023-02-01T11:44:33;4.87;;;0.40;;
71127;SDS011;59249;59.736;30.568;2023-02-01T11:47:25;5.13;;;0.40;;
71127;SDS011;59249;59.736;30.568;2023-02-01T11:49:56;2.30;;;0.32;;
71127;SDS011;59249;59.736;30.568;2023-02-01T11:52:32;1.73;;;0.30;;
71127;SDS011;59249;59.736;30.568;2023-02-01T11:55:22;4.25;;;0.40;;
71127;SDS011;59249;59.736;30.568;2023-02-01T11:58:31;3.97;;;0.50;;
71127;SDS011;59249;59.736;30.568;2023-02-01T12:01:39;4.47;;;0.52;;
71127;SDS011;59249;59.736;30.568;2023-02-01T12:07:46;5.13;;;0.47;;
71127;SDS011;59249;59.736;30.568;2023-02-01T12:10:32;5.43;;;0.50;;
71127;SDS011;59249;59.736;30.568;2023-02-01T12:13:20;2.53;;;0.30;;
71127;SDS011;59249;59.736;30.568;2023-02-01T12:16:08;2.25;;;0.20;;
71127;SDS011;59249;59.736;30.568;2023-02-01T12:22:04;1.52;;;0.20;;
71127;SDS011;59249;59.736;30.568;2023-02-01T12:28:23;3.73;;;0.67;;
71127;SDS011;59249;59.736;30.568;2023-02-01T12:31:31;6.50;;;1.20;;
71127;SDS011;59249;59.736;30.568;2023-02-01T12:37:31;3.08;;;0.65;;
71127;SDS011;59249;59.736;30.568;2023-02-01T12:40:26;3.85;;;0.70;;
71127;SDS011;59249;59.736;30.568;2023-02-01T12:43:11;4.03;;;0.50;;
71127;SDS011;59249;59.736;30.568;2023-02-01T12:45:51;4.18;;;0.50;;
71127;SDS011;59249;59.736;30.568;2023-02-01T12:48:29;4.20;;;0.50;;
71127;SDS011;59249;59.736;30.568;2023-02-01T12:51:07;4.57;;;0.40;;
71127;SDS011;59249;59.736;30.568;2023-02-01T12:53:44;6.00;;;0.43;;
71127;SDS011;59249;59.736;30.568;2023-02-01T12:56:21;6.60;;;0.40;;
71127;SDS011;59249;59.736;30.568;2023-02-01T12:58:54;3.55;;;0.35;;
71127;SDS011;59249;59.736;30.568;2023-02-01T13:01:30;3.30;;;0.35;;
71127;SDS011;59249;59.736;30.568;2023-02-01T13:04:05;2.25;;;0.30;;
71127;SDS011;59249;59.736;30.568;2023-02-01T13:06:43;3.88;;;0.55;;
71127;SDS011;59249;59.736;30.568;2023-02-01T13:09:20;1.80;;;0.30;;
71127;SDS011;59249;59.736;30.568;2023-02-01T13:11:55;2.63;;;0.40;;
71127;SDS011;59249;59.736;30.568;2023-02-01T13:14:35;4.22;;;0.30;;
71127;SDS011;59249;59.736;30.568;2023-02-01T13:17:12;2.20;;;0.40;;
71127;SDS011;59249;59.736;30.568;2023-02-01T13:19:48;5.85;;;0.77;;
71127;SDS011;59249;59.736;30.568;2023-02-01T13:22:23;6.10;;;0.40;;
71127;SDS011;59249;59.736;30.568;2023-02-01T13:24:58;3.83;;;0.30;;
71127;SDS011;59249;59.736;30.568;2023-02-01T13:27:31;3.70;;;0.50;;
71127;SDS011;59249;59.736;30.568;2023-02-01T13:30:02;2.97;;;0.30;;
71127;SDS011;59249;59.736;30.568;2023-02-01T13:32:51;3.38;;;0.30;;
71127;SDS011;59249;59.736;30.568;2023-02-01T13:36:27;1.53;;;0.43;;
71127;SDS011;59249;59.736;30.568;2023-02-01T13:42:35;2.97;;;0.65;;
71127;SDS011;59249;59.736;30.568;2023-02-01T13:45:16;2.92;;;0.50;;
71127;SDS011;59249;59.736;30.568;2023-02-01T13:47:52;7.03;;;2.47;;
71127;SDS011;59249;59.736;30.568;2023-02-01T13:50:26;7.83;;;1.90;;
71127;SDS011;59249;59.736;30.568;2023-02-01T13:53:01;6.22;;;2.63;;
71127;SDS011;59249;59.736;30.568;2023-02-01T13:55:43;3.40;;;0.63;;
71127;SDS011;59249;59.736;30.568;2023-02-01T13:58:15;5.97;;;0.70;;
71127;SDS011;59249;59.736;30.568;2023-02-01T14:00:50;4.55;;;1.00;;
71127;SDS011;59249;59.736;30.568;2023-02-01T14:03:44;6.27;;;1.27;;
71127;SDS011;59249;59.736;30.568;2023-02-01T14:06:16;5.82;;;1.08;;
71127;SDS011;59249;59.736;30.568;2023-02-01T14:09:19;3.97;;;1.13;;
71127;SDS011;59249;59.736;30.568;2023-02-01T14:15:21;3.75;;;0.60;;
71127;SDS011;59249;59.736;30.568;2023-02-01T14:17:55;5.40;;;0.93;;
71127;SDS011;59249;59.736;30.568;2023-02-01T14:23:27;4.13;;;1.25;;
71127;SDS011;59249;59.736;30.568;2023-02-01T14:26:08;3.40;;;0.90;;
71127;SDS011;59249;59.736;30.568;2023-02-01T14:28:53;4.30;;;1.10;;
71127;SDS011;59249;59.736;30.568;2023-02-01T14:34:48;5.55;;;0.82;;
71127;SDS011;59249;59.736;30.568;2023-02-01T14:37:26;5.10;;;0.77;;
71127;SDS011;59249;59.736;30.568;2023-02-01T14:40:00;3.45;;;0.70;;
71127;SDS011;59249;59.736;30.568;2023-02-01T14:42:35;5.80;;;0.98;;
71127;SDS011;59249;59.736;30.568;2023-02-01T14:51:15;6.40;;;0.90;;
71127;SDS011;59249;59.736;30.568;2023-02-01T14:53:48;3.00;;;0.60;;
71127;SDS011;59249;59.736;30.568;2023-02-01T14:56:18;5.95;;;0.60;;
71127;SDS011;59249;59.736;30.568;2023-02-01T14:58:50;8.50;;;1.40;;
71127;SDS011;59249;59.736;30.568;2023-02-01T15:01:26;3.90;;;0.60;;
71127;SDS011;59249;59.736;30.568;2023-02-01T15:04:00;5.70;;;0.85;;
71127;SDS011;59249;59.736;30.568;2023-02-01T15:06:36;5.68;;;0.98;;
71127;SDS011;59249;59.736;30.568;2023-02-01T15:09:11;5.40;;;0.90;;
71127;SDS011;59249;59.736;30.568;2023-02-01T15:12:00;5.63;;;0.90;;
71127;SDS011;59249;59.736;30.568;2023-02-01T15:15:05;3.88;;;0.88;;
71127;SDS011;59249;59.736;30.568;2023-02-01T15:17:49;4.45;;;0.95;;
71127;SDS011;59249;59.736;30.568;2023-02-01T15:20:21;7.75;;;1.08;;
71127;SDS011;59249;59.736;30.568;2023-02-01T15:22:53;5.90;;;1.77;;
71127;SDS011;59249;59.736;30.568;2023-02-01T15:25:28;5.50;;;1.40;;
71127;SDS011;59249;59.736;30.568;2023-02-01T15:28:03;5.03;;;1.67;;
71127;SDS011;59249;59.736;30.568;2023-02-01T15:30:34;9.38;;;1.65;;
71127;SDS011;59249;59.736;30.568;2023-02-01T15:33:07;8.50;;;1.88;;
71127;SDS011;59249;59.736;30.568;2023-02-01T15:35:44;6.93;;;1.50;;
71127;SDS011;59249;59.736;30.568;2023-02-01T15:38:19;12.73;;;4.10;;
71127;SDS011;59249;59.736;30.568;2023-02-01T15:41:08;5.75;;;1.27;;
71127;SDS011;59249;59.736;30.568;2023-02-01T15:43:42;6.45;;;1.33;;
71127;SDS011;59249;59.736;30.568;2023-02-01T15:46:19;7.68;;;1.35;;
71127;SDS011;59249;59.736;30.568;2023-02-01T15:49:01;10.05;;;1.77;;
71127;SDS011;59249;59.736;30.568;2023-02-01T15:51:31;7.23;;;2.20;;
71127;SDS011;59249;59.736;30.568;2023-02-01T15:54:01;9.80;;;1.52;;
71127;SDS011;59249;59.736;30.568;2023-02-01T15:56:36;7.57;;;1.85;;
71127;SDS011;59249;59.736;30.568;2023-02-01T15:59:12;5.22;;;1.45;;
71127;SDS011;59249;59.736;30.568;2023-02-01T16:01:44;6.20;;;1.20;;
71127;SDS011;59249;59.736;30.568;2023-02-01T16:04:16;7.03;;;2.03;;
71127;SDS011;59249;59.736;30.568;2023-02-01T16:06:49;6.40;;;1.70;;
71127;SDS011;59249;59.736;30.568;2023-02-01T16:09:21;6.03;;;1.10;;